createdAt,value
2023-10-07T00:02:18.676Z,17.30
2023-10-07T00:04:46.245Z,17.20
2023-10-07T00:07:13.791Z,17.30
2023-10-07T00:09:44.919Z,17.20
2023-10-07T00:12:17.248Z,17.20
2023-10-07T00:14:45.123Z,17.20
2023-10-07T00:17:19.018Z,17.30
2023-10-07T00:19:47.505Z,17.20
2023-10-07T00:22:17.628Z,17.30
2023-10-07T00:24:46.733Z,17.20
2023-10-07T00:27:31.504Z,17.30
2023-10-07T00:30:00.434Z,17.30
2023-10-07T00:32:29.211Z,17.20
2023-10-07T00:34:56.817Z,17.20
2023-10-07T00:37:25.309Z,17.20
2023-10-07T00:39:53.449Z,17.20
2023-10-07T00:42:20.779Z,17.20
2023-10-07T00:44:54.342Z,17.20
2023-10-07T00:47:22.964Z,17.20
2023-10-07T00:49:50.084Z,17.20
2023-10-07T00:52:45.333Z,17.20
2023-10-07T00:55:19.501Z,17.20
2023-10-07T00:57:55.131Z,17.20
2023-10-07T01:00:27.804Z,17.20
2023-10-07T01:03:07.487Z,17.20
2023-10-07T01:05:36.929Z,17.20
2023-10-07T01:08:07.471Z,17.20
2023-10-07T01:10:39.708Z,17.20
2023-10-07T01:13:25.418Z,17.20
2023-10-07T01:15:54.835Z,17.20
2023-10-07T01:18:23.010Z,17.20
2023-10-07T01:20:52.476Z,17.20
2023-10-07T01:23:25.907Z,17.20
2023-10-07T01:25:52.677Z,17.20
2023-10-07T01:28:22.082Z,17.20
2023-10-07T01:31:10.672Z,17.20
2023-10-07T01:33:41.480Z,17.20
2023-10-07T01:36:17.671Z,17.20
2023-10-07T01:38:54.490Z,17.20
2023-10-07T01:41:22.635Z,17.20
2023-10-07T01:44:00.365Z,17.30
2023-10-07T01:46:29.619Z,17.20
2023-10-07T01:48:58.583Z,17.20
2023-10-07T01:51:30.477Z,17.30
2023-10-07T01:54:05.157Z,17.30
2023-10-07T01:56:33.077Z,17.30
2023-10-07T01:59:10.987Z,17.30
2023-10-07T02:01:42.652Z,17.30
2023-10-07T02:04:18.509Z,17.30
2023-10-07T02:06:52.821Z,17.30
2023-10-07T02:09:26.997Z,17.30
2023-10-07T02:11:55.297Z,17.40
2023-10-07T02:14:26.915Z,17.40
2023-10-07T02:16:54.374Z,17.40
2023-10-07T02:19:29.014Z,17.40
2023-10-07T02:22:08.550Z,17.40
2023-10-07T02:24:36.436Z,17.40
2023-10-07T02:27:09.645Z,17.40
2023-10-07T02:29:36.431Z,17.40
2023-10-07T02:32:16.113Z,17.40
2023-10-07T02:34:56.378Z,17.40
2023-10-07T02:37:26.941Z,17.40
2023-10-07T02:39:57.593Z,17.40
2023-10-07T02:42:34.031Z,17.40
2023-10-07T02:45:06.773Z,17.40
2023-10-07T02:47:33.861Z,17.50
2023-10-07T02:50:03.944Z,17.50
2023-10-07T02:52:37.766Z,17.50
2023-10-07T02:55:17.703Z,17.40
2023-10-07T02:57:49.049Z,17.40
2023-10-07T03:00:36.460Z,17.50
2023-10-07T03:03:16.309Z,17.40
2023-10-07T03:05:46.947Z,17.50
2023-10-07T03:08:20.983Z,17.50
2023-10-07T03:10:56.094Z,17.50
2023-10-07T03:13:26.006Z,17.40
2023-10-07T03:16:11.221Z,17.50
2023-10-07T03:18:39.587Z,17.50
2023-10-07T03:21:12.819Z,17.50
2023-10-07T03:23:47.430Z,17.50
2023-10-07T03:26:23.184Z,17.50
2023-10-07T03:28:56.946Z,17.50
2023-10-07T03:31:35.616Z,17.50
2023-10-07T03:34:04.814Z,17.50
2023-10-07T03:37:09.808Z,17.50
2023-10-07T03:39:55.204Z,17.60
2023-10-07T03:42:22.415Z,17.50
2023-10-07T03:44:50.710Z,17.60
2023-10-07T03:47:17.833Z,17.60
2023-10-07T03:49:54.304Z,17.60
2023-10-07T03:52:22.137Z,17.50
2023-10-07T03:54:49.484Z,17.60
2023-10-07T03:57:19.899Z,17.60
2023-10-07T03:59:47.594Z,17.60
2023-10-07T04:02:30.196Z,17.60
2023-10-07T04:05:01.561Z,17.70
2023-10-07T04:07:31.100Z,17.70
2023-10-07T04:10:13.947Z,17.70
2023-10-07T04:12:41.289Z,17.70
2023-10-07T04:15:13.916Z,17.70
2023-10-07T04:17:41.379Z,17.70
2023-10-07T04:20:19.619Z,17.70
2023-10-07T04:23:02.689Z,17.70
2023-10-07T04:25:33.202Z,17.70
2023-10-07T04:28:07.753Z,17.70
2023-10-07T04:30:48.513Z,17.70
2023-10-07T04:33:19.184Z,17.70
2023-10-07T04:35:50.422Z,17.70
2023-10-07T04:38:26.160Z,17.80
2023-10-07T04:41:15.656Z,17.80
2023-10-07T04:43:45.342Z,17.80
2023-10-07T04:46:30.934Z,17.80
2023-10-07T04:49:00.170Z,17.80
2023-10-07T04:51:58.543Z,17.80
2023-10-07T04:54:25.323Z,17.80
2023-10-07T04:57:01.819Z,17.80
2023-10-07T04:59:29.948Z,17.80
2023-10-07T05:02:02.840Z,17.80
2023-10-07T05:04:30.050Z,17.80
2023-10-07T05:06:56.861Z,17.80
2023-10-07T05:09:24.410Z,17.80
2023-10-07T05:11:51.769Z,17.80
2023-10-07T05:14:23.779Z,17.80
2023-10-07T05:16:51.045Z,17.80
2023-10-07T05:19:24.390Z,17.80
2023-10-07T05:22:15.581Z,17.90
2023-10-07T05:24:47.404Z,17.90
2023-10-07T05:27:15.319Z,17.90
2023-10-07T05:29:44.592Z,17.90
2023-10-07T05:32:11.634Z,17.90
2023-10-07T05:34:38.542Z,17.80
2023-10-07T05:37:12.169Z,17.90
2023-10-07T05:39:45.490Z,17.90
2023-10-07T05:42:15.118Z,17.90
2023-10-07T05:44:42.190Z,17.90
2023-10-07T05:47:10.682Z,17.90
2023-10-07T05:49:39.034Z,17.90
2023-10-07T05:52:06.544Z,17.90
2023-10-07T05:54:33.543Z,17.90
2023-10-07T05:57:03.429Z,17.90
2023-10-07T05:59:34.655Z,17.90
2023-10-07T06:02:08.023Z,17.90
2023-10-07T06:04:35.846Z,17.90
2023-10-07T06:07:02.796Z,17.90
2023-10-07T06:09:30.034Z,17.90
2023-10-07T06:12:00.793Z,17.90
2023-10-07T06:14:27.771Z,17.90
2023-10-07T06:16:57.195Z,17.90
2023-10-07T06:19:24.826Z,17.90
2023-10-07T06:21:57.847Z,18.00
2023-10-07T06:24:25.130Z,18.00
2023-10-07T06:26:55.090Z,18.00
2023-10-07T06:29:22.174Z,18.00
2023-10-07T06:32:18.940Z,18.00
2023-10-07T06:34:46.092Z,18.00
2023-10-07T06:37:12.852Z,18.00
2023-10-07T06:39:39.635Z,18.00
2023-10-07T06:42:07.427Z,18.00
2023-10-07T06:44:34.206Z,18.00
2023-10-07T06:47:03.911Z,18.00
2023-10-07T06:49:35.719Z,18.00
2023-10-07T06:52:04.735Z,18.10
2023-10-07T06:54:33.700Z,18.00
2023-10-07T06:57:03.076Z,18.10
2023-10-07T06:59:30.385Z,18.10
2023-10-07T07:01:58.908Z,18.10
2023-10-07T07:04:26.088Z,18.10
2023-10-07T07:07:11.487Z,18.10
2023-10-07T07:09:43.972Z,18.10
2023-10-07T07:12:13.319Z,18.10
2023-10-07T07:15:04.166Z,18.10
2023-10-07T07:17:31.640Z,18.20
2023-10-07T07:20:14.075Z,18.20
2023-10-07T07:22:46.963Z,18.10
2023-10-07T07:25:31.262Z,18.20
2023-10-07T07:28:01.612Z,18.20
2023-10-07T07:30:31.807Z,18.10
2023-10-07T07:33:23.930Z,18.20
2023-10-07T07:35:57.922Z,18.20
2023-10-07T07:38:31.228Z,18.20
2023-10-07T07:41:06.621Z,18.20
2023-10-07T07:43:35.148Z,18.20
2023-10-07T07:46:33.126Z,18.30
2023-10-07T07:49:09.905Z,18.30
2023-10-07T07:51:52.773Z,18.40
2023-10-07T07:54:19.728Z,18.40
2023-10-07T07:56:47.833Z,18.40
2023-10-07T07:59:14.924Z,18.40
2023-10-07T08:01:52.258Z,18.40
2023-10-07T08:04:20.037Z,18.50
2023-10-07T08:06:50.773Z,18.50
2023-10-07T08:09:20.978Z,18.50
2023-10-07T08:11:50.280Z,18.60
2023-10-07T08:14:18.711Z,18.60
2023-10-07T08:16:51.957Z,18.60
2023-10-07T08:19:25.429Z,18.70
2023-10-07T08:21:53.813Z,18.70
2023-10-07T08:24:21.708Z,18.70
2023-10-07T08:26:50.348Z,18.70
2023-10-07T08:29:41.437Z,18.80
2023-10-07T08:32:29.968Z,18.80
2023-10-07T08:35:00.717Z,18.80
2023-10-07T08:37:33.887Z,18.90
2023-10-07T08:40:12.440Z,18.90
2023-10-07T08:42:45.647Z,19.10
2023-10-07T08:45:24.540Z,19.10
2023-10-07T08:47:53.011Z,19.10
2023-10-07T08:50:26.088Z,19.20
2023-10-07T08:53:03.966Z,19.20
2023-10-07T08:55:32.745Z,19.30
2023-10-07T08:58:05.203Z,19.40
2023-10-07T09:00:35.008Z,19.50
2023-10-07T09:03:11.715Z,19.60
2023-10-07T09:05:38.808Z,19.60
2023-10-07T09:08:12.408Z,19.70
2023-10-07T09:10:49.561Z,19.80
2023-10-07T09:13:29.552Z,19.90
2023-10-07T09:16:00.433Z,20.10
2023-10-07T09:18:39.223Z,20.20
2023-10-07T09:21:23.498Z,20.30
2023-10-07T09:23:53.196Z,20.40
2023-10-07T09:26:23.197Z,20.60
2023-10-07T09:28:59.548Z,20.60
2023-10-07T09:31:31.314Z,20.70
2023-10-07T09:34:10.999Z,20.80
2023-10-07T09:36:47.646Z,20.80
2023-10-07T09:39:34.917Z,20.90
2023-10-07T09:42:06.247Z,21.00
2023-10-07T09:44:33.523Z,21.10
2023-10-07T09:47:14.163Z,21.10
2023-10-07T09:49:41.164Z,21.20
2023-10-07T09:52:18.547Z,21.20
2023-10-07T09:54:51.439Z,21.40
2023-10-07T09:57:43.656Z,21.40
2023-10-07T10:00:32.680Z,21.50
2023-10-07T10:03:13.525Z,21.60
2023-10-07T10:05:46.392Z,21.70
2023-10-07T10:08:31.879Z,21.70
2023-10-07T10:11:09.532Z,21.80
2023-10-07T10:13:42.236Z,22.00
2023-10-07T10:16:20.395Z,22.10
2023-10-07T10:19:12.437Z,22.10
2023-10-07T10:21:39.313Z,22.10
2023-10-07T10:24:06.234Z,22.30
2023-10-07T10:26:34.682Z,22.30
2023-10-07T10:29:05.657Z,22.40
2023-10-07T10:31:34.562Z,22.40
2023-10-07T10:34:06.878Z,22.50
2023-10-07T10:36:39.719Z,22.50
2023-10-07T10:42:03.653Z,22.60
2023-10-07T10:44:37.774Z,22.60
2023-10-07T10:47:05.978Z,22.70
2023-10-07T10:49:36.138Z,22.70
2023-10-07T10:52:04.009Z,22.80
2023-10-07T10:54:30.976Z,22.80
2023-10-07T10:56:59.474Z,22.80
2023-10-07T10:59:49.978Z,22.90
2023-10-07T11:02:19.113Z,22.90
2023-10-07T11:04:55.589Z,22.90
2023-10-07T11:07:26.215Z,22.90
2023-10-07T11:09:54.148Z,23.00
2023-10-07T11:12:24.264Z,22.90
2023-10-07T11:15:01.372Z,23.00
2023-10-07T11:17:29.065Z,23.00
2023-10-07T11:19:56.108Z,23.00
2023-10-07T11:22:23.975Z,23.10
2023-10-07T11:24:51.729Z,23.10
2023-10-07T11:27:19.316Z,23.00
2023-10-07T11:29:56.688Z,23.10
2023-10-07T11:32:30.894Z,23.10
2023-10-07T11:35:00.701Z,23.10
2023-10-07T11:37:29.286Z,23.10
2023-10-07T11:39:57.114Z,23.20
2023-10-07T11:42:24.297Z,23.20
2023-10-07T11:44:58.314Z,23.20
2023-10-07T11:47:26.041Z,23.30
2023-10-07T11:49:53.601Z,23.30
2023-10-07T11:52:20.800Z,23.40
2023-10-07T11:54:48.380Z,23.50
2023-10-07T11:57:15.250Z,23.60
2023-10-07T11:59:45.712Z,23.60
2023-10-07T12:02:13.284Z,23.60
2023-10-07T12:04:41.168Z,23.70
2023-10-07T12:07:09.088Z,23.70
2023-10-07T12:09:38.366Z,23.80
2023-10-07T12:12:07.617Z,23.90
2023-10-07T12:14:34.580Z,23.90
2023-10-07T12:17:02.803Z,23.90
2023-10-07T12:19:31.880Z,23.90
2023-10-07T12:22:00.162Z,23.90
2023-10-07T12:26:56.521Z,24.00
2023-10-07T12:29:26.546Z,24.00
2023-10-07T12:31:53.460Z,24.00
2023-10-07T12:34:21.290Z,24.10
2023-10-07T12:36:49.028Z,24.10
2023-10-07T12:39:16.723Z,24.10
2023-10-07T12:41:43.750Z,24.10
2023-10-07T12:44:11.618Z,24.20
2023-10-07T12:46:39.773Z,24.20
2023-10-07T12:49:11.354Z,24.20
2023-10-07T12:51:43.357Z,24.20
2023-10-07T12:54:10.726Z,24.20
2023-10-07T12:56:44.672Z,24.20
2023-10-07T12:59:22.588Z,24.20
2023-10-07T13:01:52.110Z,24.20
2023-10-07T13:04:20.870Z,24.30
2023-10-07T13:06:50.255Z,24.30
2023-10-07T13:09:17.842Z,24.30
2023-10-07T13:11:46.956Z,24.40
2023-10-07T13:14:14.308Z,24.40
2023-10-07T13:16:46.749Z,24.50
2023-10-07T13:19:15.138Z,24.50
2023-10-07T13:21:42.933Z,24.50
2023-10-07T13:24:12.752Z,24.60
2023-10-07T13:26:40.008Z,24.60
2023-10-07T13:29:12.163Z,24.60
2023-10-07T13:31:39.827Z,24.60
2023-10-07T13:34:09.812Z,24.70
2023-10-07T13:36:42.370Z,24.70
2023-10-07T13:39:18.715Z,24.70
2023-10-07T13:41:46.301Z,24.70
2023-10-07T13:44:18.204Z,24.80
2023-10-07T13:46:46.373Z,24.80
2023-10-07T13:49:16.992Z,24.90
2023-10-07T13:51:45.779Z,24.90
2023-10-07T13:54:31.337Z,24.90
2023-10-07T13:57:03.703Z,24.90
2023-10-07T13:59:30.820Z,25.00
2023-10-07T14:01:59.709Z,25.00
2023-10-07T14:04:27.176Z,25.00
2023-10-07T14:07:01.810Z,25.00
2023-10-07T14:09:30.791Z,25.10
2023-10-07T14:11:58.031Z,25.10
2023-10-07T14:14:28.665Z,25.10
2023-10-07T14:17:00.578Z,25.10
2023-10-07T14:19:29.316Z,25.10
2023-10-07T14:21:56.135Z,25.10
2023-10-07T14:24:29.182Z,25.10
2023-10-07T14:26:57.400Z,25.10
2023-10-07T14:29:24.422Z,25.10
2023-10-07T14:31:53.146Z,25.10
2023-10-07T14:34:20.053Z,25.10
2023-10-07T14:36:47.175Z,25.10
2023-10-07T14:39:14.821Z,25.10
2023-10-07T14:41:44.503Z,25.00
2023-10-07T14:44:11.775Z,25.00
2023-10-07T14:46:45.829Z,24.90
2023-10-07T14:49:13.527Z,24.80
2023-10-07T14:51:40.651Z,24.80
2023-10-07T14:54:07.419Z,24.70
2023-10-07T14:56:34.430Z,24.70
2023-10-07T14:59:01.373Z,24.60
2023-10-07T15:01:29.343Z,24.60
2023-10-07T15:03:57.182Z,24.50
2023-10-07T15:06:24.357Z,24.40
2023-10-07T15:08:52.192Z,24.30
2023-10-07T15:11:23.474Z,24.20
2023-10-07T15:13:51.755Z,24.20
2023-10-07T15:16:19.319Z,24.10
2023-10-07T15:18:47.872Z,24.10
2023-10-07T15:21:15.860Z,24.00
2023-10-07T15:23:43.014Z,23.90
2023-10-07T15:26:14.456Z,23.90
2023-10-07T15:28:41.668Z,23.90
2023-10-07T15:31:09.599Z,23.80
2023-10-07T15:33:57.475Z,23.70
2023-10-07T15:36:25.226Z,23.70
2023-10-07T15:38:53.335Z,23.70
2023-10-07T15:41:20.935Z,23.60
2023-10-07T15:43:50.557Z,23.60
2023-10-07T15:46:18.433Z,23.50
2023-10-07T15:48:45.524Z,23.50
2023-10-07T15:51:15.022Z,23.50
2023-10-07T15:53:43.486Z,23.50
2023-10-07T15:56:19.358Z,23.40
2023-10-07T15:58:46.651Z,23.40
2023-10-07T16:01:14.422Z,23.30
2023-10-07T16:03:43.148Z,23.30
2023-10-07T16:06:13.319Z,23.20
2023-10-07T16:08:40.630Z,23.20
2023-10-07T16:11:11.777Z,23.10
2023-10-07T16:13:38.604Z,23.10
2023-10-07T16:16:08.094Z,23.10
2023-10-07T16:18:42.708Z,23.00
2023-10-07T16:21:13.494Z,23.00
2023-10-07T16:23:41.272Z,22.90
2023-10-07T16:26:09.576Z,22.90
2023-10-07T16:28:46.930Z,22.80
2023-10-07T16:31:14.519Z,22.70
2023-10-07T16:33:42.243Z,22.70
2023-10-07T16:36:09.580Z,22.60
2023-10-07T16:38:42.519Z,22.60
2023-10-07T16:41:13.775Z,22.60
2023-10-07T16:43:40.747Z,22.50
2023-10-07T16:46:07.698Z,22.50
2023-10-07T16:48:35.760Z,22.40
2023-10-07T16:51:06.952Z,22.30
2023-10-07T16:53:36.208Z,22.30
2023-10-07T16:56:05.762Z,22.20
2023-10-07T16:58:32.598Z,22.20
2023-10-07T17:00:59.985Z,22.20
2023-10-07T17:03:28.324Z,22.10
2023-10-07T17:05:59.781Z,22.10
2023-10-07T17:08:27.536Z,22.00
2023-10-07T17:10:57.555Z,21.90
2023-10-07T17:13:27.549Z,21.90
2023-10-07T17:15:57.080Z,21.90
2023-10-07T17:18:27.813Z,21.80
2023-10-07T17:20:55.895Z,21.80
2023-10-07T17:23:22.697Z,21.70
2023-10-07T17:25:49.966Z,21.70
2023-10-07T17:28:17.058Z,21.70
2023-10-07T17:30:48.697Z,21.70
2023-10-07T17:33:17.034Z,21.60
2023-10-07T17:35:44.972Z,21.60
2023-10-07T17:38:12.620Z,21.60
2023-10-07T17:40:40.987Z,21.50
2023-10-07T17:43:10.341Z,21.40
2023-10-07T17:45:38.644Z,21.40
2023-10-07T17:48:07.492Z,21.40
2023-10-07T17:50:34.768Z,21.40
2023-10-07T17:53:03.494Z,21.40
2023-10-07T17:55:30.667Z,21.30
2023-10-07T17:57:57.789Z,21.30
2023-10-07T18:00:28.122Z,21.20
2023-10-07T18:02:56.522Z,21.20
2023-10-07T18:05:24.656Z,21.20
2023-10-07T18:07:52.585Z,21.10
2023-10-07T18:10:23.934Z,21.10
2023-10-07T18:12:52.277Z,21.10
2023-10-07T18:15:19.794Z,21.10
2023-10-07T18:17:47.553Z,21.00
2023-10-07T18:20:15.035Z,21.00
2023-10-07T18:23:01.717Z,21.00
2023-10-07T18:25:28.574Z,21.00
2023-10-07T18:27:55.342Z,20.90
2023-10-07T18:30:22.159Z,20.90
2023-10-07T18:32:49.233Z,20.80
2023-10-07T18:35:16.304Z,20.80
2023-10-07T18:37:43.147Z,20.80
2023-10-07T18:40:10.567Z,20.80
2023-10-07T18:42:38.025Z,20.80
2023-10-07T18:45:06.481Z,20.70
2023-10-07T18:47:33.877Z,20.70
2023-10-07T18:50:00.998Z,20.70
2023-10-07T18:52:28.984Z,20.70
2023-10-07T18:54:56.771Z,20.70
2023-10-07T18:57:23.571Z,20.70
2023-10-07T18:59:50.416Z,20.60
2023-10-07T19:02:17.453Z,20.60
2023-10-07T19:04:44.421Z,20.60
2023-10-07T19:07:11.721Z,20.60
2023-10-07T19:09:38.470Z,20.60
2023-10-07T19:12:06.303Z,20.60
2023-10-07T19:14:33.678Z,20.50
2023-10-07T19:17:01.546Z,20.50
2023-10-07T19:19:28.612Z,20.50
2023-10-07T19:21:55.569Z,20.40
2023-10-07T19:24:24.474Z,20.40
2023-10-07T19:26:51.845Z,20.40
2023-10-07T19:29:18.856Z,20.40
2023-10-07T19:31:45.717Z,20.40
2023-10-07T19:34:12.632Z,20.30
2023-10-07T19:36:39.343Z,20.30
2023-10-07T19:39:06.291Z,20.30
2023-10-07T19:41:33.217Z,20.20
2023-10-07T19:44:00.353Z,20.20
2023-10-07T19:46:27.377Z,20.20
2023-10-07T19:48:54.306Z,20.20
2023-10-07T19:51:21.190Z,20.20
2023-10-07T19:53:48.005Z,20.10
2023-10-07T19:56:14.855Z,20.10
2023-10-07T19:58:42.610Z,20.10
2023-10-07T20:01:09.523Z,20.10
2023-10-07T20:03:36.613Z,20.10
2023-10-07T20:06:11.163Z,20.10
2023-10-07T20:08:40.816Z,20.00
2023-10-07T20:11:07.888Z,20.00
2023-10-07T20:13:35.426Z,20.00
2023-10-07T20:16:03.763Z,20.00
2023-10-07T20:18:30.711Z,19.90
2023-10-07T20:20:58.618Z,19.90
2023-10-07T20:23:26.325Z,19.90
2023-10-07T20:26:08.121Z,19.90
2023-10-07T20:28:37.171Z,19.90
2023-10-07T20:31:07.558Z,19.90
2023-10-07T20:33:35.012Z,19.80
2023-10-07T20:36:02.166Z,19.80
2023-10-07T20:38:29.148Z,19.80
2023-10-07T20:40:58.466Z,19.80
2023-10-07T20:43:25.399Z,19.80
2023-10-07T20:46:03.186Z,19.80
2023-10-07T20:48:31.378Z,19.80
2023-10-07T20:51:05.602Z,19.70
2023-10-07T20:53:34.144Z,19.80
2023-10-07T20:56:01.719Z,19.80
2023-10-07T20:58:29.453Z,19.80
2023-10-07T21:00:56.249Z,19.70
2023-10-07T21:03:23.264Z,19.70
2023-10-07T21:05:51.023Z,19.70
2023-10-07T21:08:18.177Z,19.70
2023-10-07T21:10:45.658Z,19.70
2023-10-07T21:13:13.287Z,19.70
2023-10-07T21:15:42.896Z,19.70
2023-10-07T21:18:09.948Z,19.70
2023-10-07T21:20:41.892Z,19.70
2023-10-07T21:23:11.928Z,19.70
2023-10-07T21:25:44.531Z,19.70
2023-10-07T21:28:12.590Z,19.70
2023-10-07T21:30:40.317Z,19.70
2023-10-07T21:33:08.738Z,19.70
2023-10-07T21:35:37.453Z,19.70
2023-10-07T21:38:05.259Z,19.70
2023-10-07T21:40:32.998Z,19.70
2023-10-07T21:43:03.806Z,19.70
2023-10-07T21:45:31.629Z,19.70
2023-10-07T21:47:58.817Z,19.70
2023-10-07T21:50:27.782Z,19.60
2023-10-07T21:52:55.450Z,19.70
2023-10-07T21:55:26.238Z,19.60
2023-10-07T21:57:53.448Z,19.60
2023-10-07T22:00:27.098Z,19.60
2023-10-07T22:02:58.266Z,19.60
2023-10-07T22:05:29.092Z,19.60
2023-10-07T22:07:59.941Z,19.60
2023-10-07T22:10:34.574Z,19.60
2023-10-07T22:13:02.495Z,19.60
2023-10-07T22:15:29.363Z,19.60
2023-10-07T22:17:57.414Z,19.60
2023-10-07T22:20:24.467Z,19.60
2023-10-07T22:22:52.471Z,19.60
2023-10-07T22:25:19.695Z,19.60
2023-10-07T22:27:47.721Z,19.60
2023-10-07T22:30:18.835Z,19.60
2023-10-07T22:32:47.185Z,19.60
2023-10-07T22:35:23.716Z,19.60
2023-10-07T22:38:10.016Z,19.50
2023-10-07T22:40:51.244Z,19.50
2023-10-07T22:43:19.106Z,19.50
2023-10-07T22:45:50.083Z,19.50
2023-10-07T22:48:22.361Z,19.50
2023-10-07T22:51:10.396Z,19.50
2023-10-07T22:53:42.433Z,19.40
2023-10-07T22:56:20.942Z,19.40
2023-10-07T22:58:49.966Z,19.40
2023-10-07T23:01:50.529Z,19.40
2023-10-07T23:04:22.627Z,19.40
2023-10-07T23:06:57.569Z,19.40
2023-10-07T23:09:38.471Z,19.40
2023-10-07T23:12:16.830Z,19.40
2023-10-07T23:14:48.523Z,19.40
2023-10-07T23:17:32.191Z,19.40
2023-10-07T23:20:20.686Z,19.30
2023-10-07T23:22:47.608Z,19.40
2023-10-07T23:25:15.145Z,19.30
2023-10-07T23:27:45.889Z,19.30
2023-10-07T23:30:30.140Z,19.40
2023-10-07T23:32:59.243Z,19.30
2023-10-07T23:35:30.581Z,19.30
2023-10-07T23:38:19.258Z,19.30
2023-10-07T23:40:53.124Z,19.40
2023-10-07T23:43:21.356Z,19.30
2023-10-07T23:45:52.597Z,19.30
2023-10-07T23:48:20.637Z,19.30
2023-10-07T23:50:49.904Z,19.30
2023-10-07T23:53:26.509Z,19.30
2023-10-07T23:56:06.727Z,19.30
2023-10-07T23:58:44.283Z,19.30
